^^
B2 Weather Station Historical Data
Daily Summary for June 27, 2019 Units:  English    Metric   Both
Daily Weekly Monthly Yearly Custom
  High: Low: Average:
Temperature: 89.6 °F 66.1 °F 77.5 °F
Dew Point: 77.9 °F 64.6 °F 70.2 °F
Humidity: 95% 55% 80%
Wind Speed: 16.1mph 0mph 4.3mph
Wind Gust: 9.5mph - -
Wind- - South
Pressure: 30.16 in 30.06 in -
Precipitation: 0.36 in    
Historical Graphs
 
 
Tabular Data for June 27, 2019
Time Temperature Dew Point Pressure Wind Wind Speed Wind Gust Humidity Rainfall Rate (Hourly) solar
00:04 68 °F 66.2 °F 30.09 in Calm     94% 0.01 in 0.00 W/m2
00:09 68.1 °F 66.3 °F 30.09 in Calm   0.2 mph 94% 0.01 in 0.00 W/m2
00:14 68.3 °F 66.8 °F 30.09 in South 6.9 mph 0.1 mph 95% 0.01 in 0.00 W/m2
00:19 68.5 °F 66.7 °F 30.09 in SSE 3.5 mph 0.2 mph 94% 0.02 in 0.00 W/m2
00:24 68.5 °F 66.7 °F 30.10 in Calm     94% 0.02 in 0.00 W/m2
00:29 68.6 °F 66.8 °F 30.10 in Calm     94% 0.02 in 0.00 W/m2
00:34 68.5 °F 66.7 °F 30.11 in ENE 7 mph 2.8 mph 94% 0.02 in 0.00 W/m2
00:39 68.5 °F 66.7 °F 30.11 in Calm   1.6 mph 94% 0.02 in 0.00 W/m2
00:44 68.4 °F 66.9 °F 30.13 in SE 4.6 mph 0.5 mph 95% 0.05 in 0.00 W/m2
00:49 68.3 °F 66.8 °F 30.14 in Calm     95% 0.09 in 0.00 W/m2
00:54 68.2 °F 66.7 °F 30.14 in SE 8 mph 5.3 mph 95% 0.11 in 0.00 W/m2
00:59 67.6 °F 65.8 °F 30.13 in ESE 13.8 mph 9.5 mph 94% 0.08 in 0.00 W/m2
01:04 66.7 °F 64.9 °F 30.12 in ENE 16.1 mph 6 mph 94% 0.25 in 0.00 W/m2
01:09 66.4 °F 64.6 °F 30.12 in ESE 12 mph 7.4 mph 94% 0.26 in 0.00 W/m2
01:14 66.5 °F 65 °F 30.12 in SSE 10 mph 6.2 mph 95% 0.26 in 0.00 W/m2
01:19 66.6 °F 65.1 °F 30.14 in South 10.4 mph 5.5 mph 95% 0.26 in 0.00 W/m2
01:24 66.7 °F 65.2 °F 30.16 in SW 8.1 mph 3.7 mph 95% 0.29 in 0.00 W/m2
01:29 66.8 °F 65.3 °F 30.16 in Calm   0.9 mph 95% 0.32 in 0.00 W/m2
01:34 66.7 °F 65.2 °F 30.14 in ESE 4.6 mph 3.5 mph 95% 0.34 in 0.00 W/m2
01:39 66.7 °F 65.2 °F 30.14 in SE 4.6 mph   95% 0.34 in 0.00 W/m2
01:44 66.7 °F 65.2 °F 30.13 in SE 9.2 mph 6.9 mph 95% 0.3 in 0.00 W/m2
01:49 66.6 °F 65.1 °F 30.12 in SE 9.2 mph 8.9 mph 95% 0.26 in 0.00 W/m2
01:54 66.4 °F 64.9 °F 30.12 in SSE 10.4 mph 6.3 mph 95% 0.24 in 0.00 W/m2
01:59 66.4 °F 64.9 °F 30.11 in SE 9.2 mph 4.4 mph 95% 0.14 in 0.00 W/m2
02:04 66.3 °F 64.8 °F 30.11 in SSE 8.1 mph 4.8 mph 95% 0.1 in 0.00 W/m2
02:09 66.1 °F 64.6 °F 30.11 in SSE 11.5 mph 4.3 mph 95% 0.09 in 0.00 W/m2
02:14 66.2 °F 64.7 °F 30.11 in South 5 mph 3.1 mph 95% 0.09 in 0.00 W/m2
02:19 66.5 °F 65 °F 30.10 in SSE 6 mph 2.7 mph 95% 0.08 in 0.00 W/m2
02:24 66.6 °F 65.1 °F 30.10 in SSE 6.9 mph 3.9 mph 95% 0.05 in 0.00 W/m2
02:29 66.7 °F 65.2 °F 30.10 in SSE 4.6 mph 2.7 mph 95% 0.02 in 0.00 W/m2
02:34 66.7 °F 65.2 °F 30.11 in SSE 3.5 mph 1.6 mph 95% 0 in 0.00 W/m2
02:39 66.8 °F 65.3 °F 30.11 in SSE 6.9 mph 3 mph 95% 0 in 0.00 W/m2
02:44 67 °F 65.5 °F 30.11 in Calm     95% 0 in 0.00 W/m2
02:49 67.1 °F 65.6 °F 30.11 in Calm     95% 0 in 0.00 W/m2
02:54 67 °F 65.5 °F 30.11 in Calm     95% 0 in 0.00 W/m2
02:59 67 °F 65.5 °F 30.10 in Calm     95% 0 in 0.00 W/m2
03:04 67 °F 65.5 °F 30.10 in Calm     95% 0 in 0.00 W/m2
03:09 67 °F 65.5 °F 30.09 in Calm     95% 0 in 0.00 W/m2
03:14 66.9 °F 65.4 °F 30.09 in Calm     95% 0 in 0.00 W/m2
03:19 66.9 °F 65.4 °F 30.09 in Calm     95% 0 in 0.00 W/m2
03:24 66.9 °F 65.4 °F 30.08 in Calm     95% 0 in 0.00 W/m2
03:29 67 °F 65.5 °F 30.08 in Calm     95% 0 in 0.00 W/m2
03:34 67 °F 65.5 °F 30.08 in Calm     95% 0 in 0.00 W/m2
03:39 67 °F 65.5 °F 30.08 in Calm     95% 0 in 0.00 W/m2
03:44 67 °F 65.5 °F 30.09 in Calm     95% 0 in 0.00 W/m2
03:49 67 °F 65.5 °F 30.09 in Calm     95% 0 in 0.00 W/m2
03:54 67 °F 65.5 °F 30.09 in Calm     95% 0 in 0.00 W/m2
03:59 66.9 °F 65.4 °F 30.09 in Calm     95% 0 in 0.00 W/m2
04:04 66.8 °F 65.3 °F 30.09 in Calm     95% 0 in 0.00 W/m2
04:09 66.8 °F 65.3 °F 30.09 in Calm     95% 0 in 0.00 W/m2
04:14 66.9 °F 65.4 °F 30.09 in Calm     95% 0 in 0.00 W/m2
04:19 67 °F 65.5 °F 30.09 in Calm     95% 0 in 0.00 W/m2
04:24 67 °F 65.5 °F 30.09 in Calm     95% 0 in 0.00 W/m2
04:29 67.1 °F 65.6 °F 30.09 in Calm     95% 0 in 0.00 W/m2
04:34 67.2 °F 65.7 °F 30.09 in Calm     95% 0 in 0.00 W/m2
04:39 67.2 °F 65.7 °F 30.09 in Calm     95% 0 in 0.00 W/m2
04:44 67.2 °F 65.7 °F 30.09 in SW 3.5 mph 0.6 mph 95% 0 in 0.00 W/m2
04:49 67.2 °F 65.7 °F 30.09 in SW 3.5 mph 3 mph 95% 0 in 0.00 W/m2
04:54 67.3 °F 65.8 °F 30.10 in SSW 5 mph 3 mph 95% 0 in 0.00 W/m2
04:59 67.3 °F 65.5 °F 30.10 in SSW 2.3 mph 0.7 mph 94% 0 in 0.00 W/m2
05:04 67.3 °F 65.5 °F 30.09 in SSW 3.5 mph 1.1 mph 94% 0 in 0.00 W/m2
05:09 67.3 °F 65.5 °F 30.10 in SSW 3.5 mph 1 mph 94% 0 in 0.00 W/m2
05:14 67.2 °F 65.4 °F 30.10 in SW 3.5 mph 1.5 mph 94% 0 in 0.00 W/m2
05:19 67.3 °F 65.5 °F 30.10 in SSW 3.5 mph 1 mph 94% 0 in 0.00 W/m2
05:24 67.4 °F 65.6 °F 30.10 in SSW 2.3 mph 0.9 mph 94% 0 in 0.00 W/m2
05:29 67.4 °F 65.6 °F 30.10 in SSW 3 mph 1.4 mph 94% 0 in 0.00 W/m2
05:34 67.4 °F 65.6 °F 30.10 in SW 3.5 mph 1.6 mph 94% 0 in 5.00 W/m2
05:39 67.4 °F 65.6 °F 30.10 in SSW 3.5 mph 2.2 mph 94% 0 in 9.00 W/m2
05:44 67.4 °F 65.6 °F 30.10 in West 5.8 mph 3.6 mph 94% 0 in 11.00 W/m2
05:49 67.4 °F 65.6 °F 30.10 in West 3.5 mph   94% 0 in 16.00 W/m2
05:54 67.4 °F 65.6 °F 30.10 in SW 3.5 mph 0.9 mph 94% 0 in 19.00 W/m2
05:59 67.4 °F 65.6 °F 30.10 in SW 1.2 mph 0.6 mph 94% 0 in 23.00 W/m2
06:04 67.4 °F 65.6 °F 30.10 in SSW 5.8 mph 2.1 mph 94% 0 in 28.00 W/m2
06:09 67.4 °F 65.6 °F 30.11 in SSW 4.6 mph 2.8 mph 94% 0 in 32.00 W/m2
06:14 67.4 °F 65.6 °F 30.11 in SSW 3.5 mph 1.9 mph 94% 0 in 39.00 W/m2
06:19 67.5 °F 65.7 °F 30.11 in SSW 3.5 mph 2.2 mph 94% 0 in 44.00 W/m2
06:24 67.5 °F 65.7 °F 30.11 in South 2.3 mph 1.5 mph 94% 0 in 51.00 W/m2
06:29 67.6 °F 65.8 °F 30.11 in SW 5 mph 4.2 mph 94% 0 in 56.00 W/m2
06:34 67.7 °F 65.9 °F 30.11 in SSW 4.6 mph 2.2 mph 94% 0 in 65.00 W/m2
06:39 67.9 °F 66.1 °F 30.11 in SSW 3.5 mph 1.4 mph 94% 0 in 69.00 W/m2
06:44 68 °F 66.2 °F 30.11 in SW 4.6 mph 2.4 mph 94% 0 in 70.00 W/m2
06:49 68.2 °F 66.4 °F 30.11 in SW 4.6 mph 2.4 mph 94% 0 in 74.00 W/m2
06:54 68.3 °F 66.5 °F 30.12 in SW 6.9 mph 2.8 mph 94% 0 in 79.00 W/m2
06:59 68.4 °F 66.6 °F 30.12 in SSW 6.9 mph 1.9 mph 94% 0 in 81.00 W/m2
07:04 68.6 °F 66.8 °F 30.12 in South 3.5 mph 1.2 mph 94% 0 in 88.00 W/m2
07:09 68.7 °F 66.9 °F 30.12 in SSW 9.2 mph 3.9 mph 94% 0 in 90.00 W/m2
07:14 68.8 °F 67 °F 30.12 in SSW 3.5 mph 0.2 mph 94% 0 in 93.00 W/m2
07:19 69 °F 66.9 °F 30.12 in SSW 4.6 mph 4.7 mph 93% 0 in 105.00 W/m2
07:24 69.2 °F 67.1 °F 30.12 in SSW 5.8 mph 4.5 mph 93% 0 in 100.00 W/m2
07:29 69.4 °F 67.3 °F 30.13 in SSW 5.8 mph 0.7 mph 93% 0 in 132.00 W/m2
07:34 69.6 °F 67.5 °F 30.13 in Calm     93% 0 in 109.00 W/m2
07:39 69.9 °F 67.8 °F 30.13 in SW 3.5 mph   93% 0 in 130.00 W/m2
07:44 70.2 °F 67.8 °F 30.13 in Calm     92% 0 in 171.00 W/m2
07:49 70.6 °F 68.2 °F 30.13 in WSW 3.5 mph 2.5 mph 92% 0 in 258.00 W/m2
07:54 71.3 °F 68.5 °F 30.14 in SSW 1.2 mph   91% 0 in 345.00 W/m2
07:59 71.8 °F 68.7 °F 30.14 in SSW 1.2 mph 0.2 mph 90% 0 in 341.00 W/m2
08:04 72.4 °F 69 °F 30.14 in SW 3.5 mph 1.2 mph 89% 0 in 396.00 W/m2
08:09 72.9 °F 68.8 °F 30.14 in SW 5 mph 1.7 mph 87% 0 in 422.00 W/m2
08:14 73.2 °F 68.4 °F 30.14 in SSW 10.4 mph 4.4 mph 85% 0.01 in 436.00 W/m2
08:19 73.6 °F 68.8 °F 30.14 in SW 6 mph 2.1 mph 85% 0.01 in 452.00 W/m2
08:24 74.1 °F 69 °F 30.14 in SW 11.5 mph 1.6 mph 84% 0.01 in 464.00 W/m2
08:29 74.5 °F 69 °F 30.14 in WSW 4 mph 0.2 mph 83% 0.01 in 436.00 W/m2
08:34 74.7 °F 68.8 °F 30.14 in WSW 7 mph 7 mph 82% 0.01 in 450.00 W/m2
08:39 74.9 °F 69 °F 30.14 in West 11.5 mph 2 mph 82% 0.01 in 471.00 W/m2
08:44 75.2 °F 69 °F 30.14 in SSW 10 mph 3.5 mph 81% 0.01 in 473.00 W/m2
08:49 75.3 °F 69.1 °F 30.14 in SW 9.2 mph 3.8 mph 81% 0.01 in 461.00 W/m2
08:54 75.7 °F 69.5 °F 30.14 in North 8.1 mph 3.3 mph 81% 0.01 in 446.00 W/m2
08:59 75.8 °F 69.2 °F 30.14 in WSW 10.4 mph 3.9 mph 80% 0.01 in 445.00 W/m2
09:04 76.1 °F 69.5 °F 30.14 in SSE 9.2 mph 2.8 mph 80% 0.01 in 461.00 W/m2
09:09 76.6 °F 70.3 °F 30.14 in WSW 6.9 mph 3.1 mph 81% 0.01 in 504.00 W/m2
09:14 76.9 °F 70.3 °F 30.14 in WSW 6.9 mph 1.4 mph 80% 0 in 559.00 W/m2
09:19 77.1 °F 70.5 °F 30.14 in SW 7 mph 3.2 mph 80% 0 in 587.00 W/m2
09:24 77.2 °F 70.2 °F 30.14 in SW 4.6 mph 1.2 mph 79% 0 in 596.00 W/m2
09:29 77.7 °F 71.4 °F 30.13 in SSW 8.1 mph 2.1 mph 81% 0 in 591.00 W/m2
09:34 77.9 °F 70.9 °F 30.13 in SW 9 mph 4.2 mph 79% 0 in 589.00 W/m2
09:39 78.1 °F 71.4 °F 30.13 in SSW 5.8 mph 1.8 mph 80% 0 in 582.00 W/m2
09:44 78.4 °F 71.7 °F 30.12 in South 6.9 mph 3 mph 80% 0 in 575.00 W/m2
09:49 78.5 °F 71.8 °F 30.12 in SSW 9.2 mph 5.6 mph 80% 0 in 563.00 W/m2
09:54 78.6 °F 71.2 °F 30.12 in SW 4.6 mph 2.2 mph 78% 0 in 557.00 W/m2
09:59 78.9 °F 71.5 °F 30.12 in SSW 4.6 mph 3.1 mph 78% 0 in 557.00 W/m2
10:04 79.2 °F 72.1 °F 30.12 in South 10.4 mph 0.5 mph 79% 0 in 561.00 W/m2
10:09 79.4 °F 72.3 °F 30.11 in SSW 4.6 mph 1.6 mph 79% 0 in 571.00 W/m2
10:14 79.5 °F 71.3 °F 30.11 in SW 6.9 mph 4.2 mph 76% 0 in 591.00 W/m2
10:19 79.9 °F 72.8 °F 30.11 in Calm     79% 0 in 619.00 W/m2
10:24 80.5 °F 72.6 °F 30.12 in South 8.1 mph 3.6 mph 77% 0 in 656.00 W/m2
10:29 80.7 °F 72.8 °F 30.12 in SSW 6.9 mph 1.8 mph 77% 0 in 656.00 W/m2
10:34 80.8 °F 72.1 °F 30.12 in SSW 5.8 mph 1.6 mph 75% 0 in 733.00 W/m2
10:39 81.1 °F 74 °F 30.12 in Calm   0.8 mph 79% 0 in 759.00 W/m2
10:44 81.5 °F 73.6 °F 30.12 in SSE 5.8 mph 0.5 mph 77% 0 in 784.00 W/m2
10:49 81.7 °F 73.4 °F 30.12 in South 7 mph 0.8 mph 76% 0 in 791.00 W/m2
10:54 82.2 °F 74.7 °F 30.12 in North 4.6 mph 2.4 mph 78% 0 in 798.00 W/m2
10:59 82.4 °F 74.1 °F 30.13 in South 6.9 mph 1.1 mph 76% 0 in 809.00 W/m2
11:04 82.4 °F 73.7 °F 30.13 in Calm     75% 0 in 830.00 W/m2
11:09 82.5 °F 73 °F 30.13 in Calm     73% 0 in 831.00 W/m2
11:14 82.8 °F 73.7 °F 30.13 in South 5 mph 0.1 mph 74% 0 in 838.00 W/m2
11:19 83 °F 74.6 °F 30.13 in SSE 6.9 mph 0.7 mph 76% 0 in 833.00 W/m2
11:24 83.1 °F 73.5 °F 30.13 in Calm     73% 0 in 840.00 W/m2
11:29 83.2 °F 73.6 °F 30.13 in South 3.5 mph   73% 0 in 849.00 W/m2
11:34 83.4 °F 73.8 °F 30.13 in Calm     73% 0 in 851.00 W/m2
11:39 84 °F 75.6 °F 30.14 in SSW 2.3 mph 1.2 mph 76% 0 in 863.00 W/m2
11:44 84 °F 74.8 °F 30.14 in SSW 5.8 mph 3.6 mph 74% 0 in 856.00 W/m2
11:49 83.9 °F 72.6 °F 30.13 in SW 4.6 mph   69% 0 in 868.00 W/m2
11:54 84.3 °F 75.5 °F 30.13 in Calm   0.5 mph 75% 0 in 872.00 W/m2
11:59 84.6 °F 73.7 °F 30.14 in Calm     70% 0 in 911.00 W/m2
12:04 84.6 °F 73.7 °F 30.14 in South 5 mph 4.2 mph 70% 0 in 991.00 W/m2
12:09 85 °F 75 °F 30.14 in Calm     72% 0 in 1032.00 W/m2
12:14 85.7 °F 76.5 °F 30.14 in Calm     74% 0 in 1027.00 W/m2
12:19 85.7 °F 75.2 °F 30.13 in Calm     71% 0 in 926.00 W/m2
12:24 85.9 °F 76.2 °F 30.12 in SSE 3.5 mph 4.1 mph 73% 0 in 905.00 W/m2
12:29 85.9 °F 75 °F 30.12 in Calm   0.8 mph 70% 0 in 909.00 W/m2
12:34 85.9 °F 75.8 °F 30.12 in SE 5.8 mph 3.6 mph 72% 0 in 916.00 W/m2
12:39 85.9 °F 76.2 °F 30.13 in Calm   0.1 mph 73% 0 in 935.00 W/m2
12:44 86.1 °F 76.8 °F 30.13 in SE 4 mph 0.2 mph 74% 0 in 932.00 W/m2
12:49 86.1 °F 75.2 °F 30.12 in SSE 8.1 mph   70% 0 in 946.00 W/m2
12:54 86.2 °F 75.7 °F 30.12 in South 4.6 mph   71% 0 in 960.00 W/m2
12:59 86.2 °F 76.1 °F 30.13 in South 3.5 mph 0.4 mph 72% 0 in 954.00 W/m2
13:04 86.2 °F 76.5 °F 30.13 in SSE 9.2 mph 1.9 mph 73% 0 in 1023.00 W/m2
13:09 86.3 °F 76.6 °F 30.12 in SSE 3.5 mph 1.1 mph 73% 0 in 993.00 W/m2
13:14 86.5 °F 76.8 °F 30.12 in ESE 3.5 mph 0.2 mph 73% 0 in 949.00 W/m2
13:19 86.8 °F 76.7 °F 30.12 in SE 10.4 mph 6.3 mph 72% 0 in 953.00 W/m2
13:24 86.7 °F 76.6 °F 30.11 in SSE 6.9 mph 1.6 mph 72% 0 in 863.00 W/m2
13:29 86.9 °F 77.6 °F 30.11 in North 9.2 mph 4.4 mph 74% 0 in 918.00 W/m2
13:34 87 °F 77.3 °F 30.10 in North 6.9 mph 4.9 mph 73% 0 in 947.00 W/m2
13:39 86.9 °F 76.8 °F 30.10 in SE 7 mph 5.2 mph 72% 0 in 854.00 W/m2
13:44 86.9 °F 77.2 °F 30.10 in SSE 8 mph 5.7 mph 73% 0 in 912.00 W/m2
13:49 87 °F 77.7 °F 30.10 in North 6 mph 2.1 mph 74% 0 in 946.00 W/m2
13:54 87.2 °F 77.1 °F 30.10 in SSE 5 mph 1.5 mph 72% 0 in 970.00 W/m2
13:59 87.3 °F 75.4 °F 30.09 in North 2.3 mph 0.5 mph 68% 0 in 921.00 W/m2
14:04 87.7 °F 77.5 °F 30.09 in SSE 3.5 mph 1.1 mph 72% 0 in 921.00 W/m2
14:09 88.1 °F 77.9 °F 30.09 in South 5 mph 5.6 mph 72% 0 in 898.00 W/m2
14:14 88 °F 76.5 °F 30.08 in Calm     69% 0 in 900.00 W/m2
14:19 88.2 °F 76.7 °F 30.08 in SSE 1.2 mph 0.5 mph 69% 0 in 893.00 W/m2
14:24 87.9 °F 74.2 °F 30.08 in SSW 10.4 mph 3.7 mph 64% 0 in 867.00 W/m2
14:29 87.9 °F 75.6 °F 30.08 in SSE 3.5 mph 2.6 mph 67% 0 in 861.00 W/m2
14:34 88 °F 75.7 °F 30.07 in South 11.5 mph 6.5 mph 67% 0 in 842.00 W/m2
14:39 88 °F 75.7 °F 30.07 in SSE 8 mph 4.1 mph 67% 0 in 902.00 W/m2
14:44 88.2 °F 75.4 °F 30.07 in South 3.5 mph 2.1 mph 66% 0 in 842.00 W/m2
14:49 88.3 °F 75.9 °F 30.07 in SSE 6.9 mph 5.3 mph 67% 0 in 833.00 W/m2
14:54 88 °F 74.8 °F 30.07 in SE 9.2 mph 6.7 mph 65% 0 in 860.00 W/m2
14:59 87.5 °F 75.6 °F 30.07 in Calm     68% 0 in 835.00 W/m2
15:04 87.9 °F 76.5 °F 30.07 in SSE 8.1 mph 3.1 mph 69% 0 in 844.00 W/m2
15:09 88.2 °F 75.9 °F 30.07 in SSE 9.2 mph 4.9 mph 67% 0 in 807.00 W/m2
15:14 88.3 °F 75.5 °F 30.07 in South 4.6 mph   66% 0 in 805.00 W/m2
15:19 88.7 °F 75.9 °F 30.07 in Calm     66% 0 in 814.00 W/m2
15:24 88.7 °F 74 °F 30.07 in SSE 5.8 mph   62% 0 in 837.00 W/m2
15:29 88.6 °F 74.4 °F 30.07 in South 1.2 mph 0.1 mph 63% 0 in 779.00 W/m2
15:34 88.5 °F 75.2 °F 30.07 in SE 5.8 mph 2.4 mph 65% 0 in 812.00 W/m2
15:39 88.5 °F 74.3 °F 30.08 in SSE 10.4 mph 4.3 mph 63% 0 in 722.00 W/m2
15:44 88.5 °F 73.8 °F 30.08 in South 3 mph 1.5 mph 62% 0 in 737.00 W/m2
15:49 88.6 °F 75.8 °F 30.08 in SSE 9.2 mph 2.7 mph 66% 0 in 747.00 W/m2
15:54 88.4 °F 75.6 °F 30.07 in SSE 8.1 mph 4 mph 66% 0 in 673.00 W/m2
15:59 88.4 °F 75.6 °F 30.07 in SSE 6.9 mph 2.1 mph 66% 0 in 682.00 W/m2
16:04 88.6 °F 73.9 °F 30.07 in North 8 mph 4.8 mph 62% 0 in 679.00 W/m2
16:09 88.6 °F 74.4 °F 30.07 in SSE 6 mph 3.4 mph 63% 0 in 656.00 W/m2
16:14 88.8 °F 76.4 °F 30.07 in SSE 6.9 mph 6 mph 67% 0 in 599.00 W/m2
16:19 88.3 °F 74.1 °F 30.07 in SSE 5.8 mph 1.7 mph 63% 0 in 650.00 W/m2
16:24 88.2 °F 74.5 °F 30.07 in SSE 5.8 mph 4.6 mph 64% 0 in 631.00 W/m2
16:29 88.4 °F 74.7 °F 30.07 in SSE 8.1 mph 4.4 mph 64% 0 in 589.00 W/m2
16:34 88.4 °F 74.7 °F 30.07 in SSE 5.8 mph 5.4 mph 64% 0 in 606.00 W/m2
16:39 88.4 °F 74.2 °F 30.07 in SSE 1 mph   63% 0 in 573.00 W/m2
16:44 88.2 °F 74 °F 30.07 in SSE 3.5 mph 0.8 mph 63% 0 in 171.00 W/m2
16:49 88.1 °F 73 °F 30.07 in Calm     61% 0 in 554.00 W/m2
16:54 88.3 °F 73.1 °F 30.07 in SSE 8 mph 3.1 mph 61% 0 in 522.00 W/m2
16:59 88.6 °F 73.9 °F 30.07 in South 9.2 mph 3.1 mph 62% 0 in 504.00 W/m2
17:04 88.6 °F 73.4 °F 30.07 in Calm     61% 0 in 506.00 W/m2
17:09 89 °F 72.8 °F 30.07 in SSE 6.9 mph 4.3 mph 59% 0 in 501.00 W/m2
17:14 89.2 °F 72 °F 30.07 in SSE 5.8 mph 3.9 mph 57% 0 in 459.00 W/m2
17:19 89.3 °F 72.6 °F 30.06 in South 6 mph 3.9 mph 58% 0 in 469.00 W/m2
17:24 89.4 °F 73.2 °F 30.07 in South 5.8 mph 0.7 mph 59% 0 in 443.00 W/m2
17:29 89.4 °F 72.7 °F 30.07 in SSE 4.6 mph 3.3 mph 58% 0 in 450.00 W/m2
17:34 89.3 °F 72.6 °F 30.06 in SSW 8.1 mph 4.5 mph 58% 0 in 439.00 W/m2
17:39 89 °F 71.8 °F 30.07 in South 5.8 mph 2.4 mph 57% 0 in 408.00 W/m2
17:44 89.1 °F 72.4 °F 30.07 in SSW 3.5 mph 2.2 mph 58% 0 in 425.00 W/m2
17:49 89.4 °F 71.1 °F 30.07 in SW 6.9 mph 1.8 mph 55% 0 in 390.00 W/m2
17:54 89.6 °F 71.8 °F 30.07 in SSW 8.1 mph 3.9 mph 56% 0 in 352.00 W/m2
17:59 89.5 °F 71.2 °F 30.07 in South 8.1 mph 2.2 mph 55% 0 in 339.00 W/m2
18:04 89.4 °F 71.6 °F 30.07 in North 3 mph 0.5 mph 56% 0 in 345.00 W/m2
18:09 89.3 °F 71.5 °F 30.07 in SSW 3.5 mph 0.4 mph 56% 0 in 292.00 W/m2
18:14 89.3 °F 71.5 °F 30.07 in SSE 3.5 mph 1.2 mph 56% 0 in 251.00 W/m2
18:19 89.2 °F 70.9 °F 30.08 in South 4.6 mph 2.6 mph 55% 0 in 237.00 W/m2
18:24 88.9 °F 71.2 °F 30.08 in North 3.5 mph   56% 0 in 135.00 W/m2
18:29 88.6 °F 70.9 °F 30.08 in SSW 4.6 mph 0.7 mph 56% 0 in 216.00 W/m2
18:34 88.6 °F 71.9 °F 30.08 in SSE 3.5 mph 0.2 mph 58% 0 in 181.00 W/m2
18:39 88.3 °F 71.1 °F 30.08 in SSE 3 mph 1.1 mph 57% 0 in 102.00 W/m2
18:44 88.1 °F 70.4 °F 30.09 in SSW 4.6 mph   56% 0 in 104.00 W/m2
18:49 88 °F 70.9 °F 30.08 in South 3.5 mph 0.5 mph 57% 0 in 100.00 W/m2
18:54 87.7 °F 70.6 °F 30.07 in North 3.5 mph 0.4 mph 57% 0 in 86.00 W/m2
18:59 87.2 °F 72.1 °F 30.07 in Calm     61% 0 in 81.00 W/m2
19:04 86.5 °F 72.4 °F 30.07 in Calm     63% 0 in 81.00 W/m2
19:09 86 °F 72.4 °F 30.07 in Calm     64% 0 in 83.00 W/m2
19:14 85.7 °F 72.1 °F 30.08 in Calm     64% 0 in 77.00 W/m2
19:19 85.6 °F 72.5 °F 30.08 in Calm     65% 0 in 58.00 W/m2
19:24 85.4 °F 72.3 °F 30.09 in Calm     65% 0 in 44.00 W/m2
19:29 85.3 °F 71.7 °F 30.09 in Calm     64% 0 in 37.00 W/m2
19:34 85.1 °F 71.5 °F 30.09 in Calm     64% 0 in 30.00 W/m2
19:39 85.2 °F 70.7 °F 30.10 in Calm     62% 0 in 28.00 W/m2
19:44 85.4 °F 70.4 °F 30.10 in Calm     61% 0 in 32.00 W/m2
19:49 85.7 °F 70.7 °F 30.10 in Calm     61% 0 in 30.00 W/m2
19:54 85.8 °F 70.8 °F 30.10 in Calm     61% 0 in 28.00 W/m2
19:59 85.9 °F 70.9 °F 30.10 in Calm     61% 0 in 25.00 W/m2
20:04 85.7 °F 72.6 °F 30.10 in Calm     65% 0 in 19.00 W/m2
20:09 85.2 °F 73.4 °F 30.10 in Calm     68% 0 in 14.00 W/m2
20:14 84.4 °F 74.4 °F 30.09 in Calm     72% 0 in 9.00 W/m2
20:19 83.3 °F 74.9 °F 30.09 in Calm     76% 0 in 5.00 W/m2
20:24 82.5 °F 74.9 °F 30.10 in Calm     78% 0 in 0.00 W/m2
20:29 81.9 °F 74.7 °F 30.10 in Calm     79% 0 in 0.00 W/m2
20:34 81.4 °F 74.3 °F 30.10 in Calm     79% 0 in 0.00 W/m2
20:39 80.8 °F 74.4 °F 30.10 in Calm     81% 0 in 0.00 W/m2
20:44 80.2 °F 74.2 °F 30.09 in Calm     82% 0 in 0.00 W/m2
20:49 79.6 °F 74 °F 30.10 in Calm     83% 0 in 0.00 W/m2
20:54 79.4 °F 73.8 °F 30.11 in NNW 4 mph 3.8 mph 83% 0 in 0.00 W/m2
20:59 79.2 °F 72.1 °F 30.11 in North 5 mph 4.7 mph 79% 0 in 0.00 W/m2
21:04 79 °F 70.4 °F 30.11 in NNW 5.8 mph 5 mph 75% 0 in 0.00 W/m2
21:09 78.7 °F 70.1 °F 30.10 in NNE 3.5 mph 0.2 mph 75% 0 in 0.00 W/m2
21:14 78.1 °F 69.9 °F 30.11 in North 6.9 mph 4.4 mph 76% 0 in 0.00 W/m2
21:19 77.7 °F 69.9 °F 30.11 in North 8.1 mph 2.7 mph 77% 0 in 0.00 W/m2
21:24 77.3 °F 69.9 °F 30.11 in North 8.1 mph 1.2 mph 78% 0 in 0.00 W/m2
21:29 76.6 °F 68.8 °F 30.11 in NE 9.2 mph 3.1 mph 77% 0 in 0.00 W/m2
21:34 75.5 °F 68.5 °F 30.11 in NE 4.6 mph 2 mph 79% 0 in 0.00 W/m2
21:39 74.7 °F 68.1 °F 30.11 in ENE 4.6 mph   80% 0 in 0.00 W/m2
21:44 74.1 °F 67.9 °F 30.11 in North 3.5 mph 0.8 mph 81% 0 in 0.00 W/m2
21:49 73.7 °F 67.9 °F 30.11 in NNE 4.6 mph   82% 0 in 0.00 W/m2
21:54 73.3 °F 67.5 °F 30.11 in NE 4.6 mph   82% 0 in 0.00 W/m2
21:59 73 °F 67.2 °F 30.11 in ENE 4.6 mph 2.1 mph 82% 0 in 0.00 W/m2
22:04 72.9 °F 67.1 °F 30.11 in East 11.5 mph 5.3 mph 82% 0 in 0.00 W/m2
22:09 72.7 °F 66.9 °F 30.11 in NE 9.2 mph 3.3 mph 82% 0 in 0.00 W/m2
22:14 72.4 °F 66.9 °F 30.11 in ENE 9.2 mph 7.4 mph 83% 0 in 0.00 W/m2
22:19 72.1 °F 66.6 °F 30.11 in ENE 8.1 mph 0.4 mph 83% 0 in 0.00 W/m2
22:24 71.9 °F 66.8 °F 30.11 in East 6.9 mph 3.9 mph 84% 0 in 0.00 W/m2
22:29 71.8 °F 66.7 °F 30.11 in East 5 mph 3.3 mph 84% 0 in 0.00 W/m2
22:34 71.7 °F 66.9 °F 30.11 in East 3.5 mph 1.8 mph 85% 0 in 0.00 W/m2
22:39 71.7 °F 66.9 °F 30.11 in East 6 mph 1.5 mph 85% 0 in 0.00 W/m2
22:44 71.8 °F 67 °F 30.12 in ENE 8.1 mph   85% 0 in 0.00 W/m2
22:49 71.7 °F 66.9 °F 30.12 in ENE 9.2 mph 3.6 mph 85% 0 in 0.00 W/m2
22:54 71.8 °F 67 °F 30.12 in East 5.8 mph 1 mph 85% 0 in 0.00 W/m2
22:59 71.9 °F 67.1 °F 30.12 in ESE 8.1 mph 5.4 mph 85% 0 in 0.00 W/m2
23:04 72.1 °F 67.3 °F 30.13 in ENE 8.1 mph 2.4 mph 85% 0 in 0.00 W/m2
23:09 72.1 °F 67.7 °F 30.13 in Calm     86% 0 in 0.00 W/m2
23:14 72.1 °F 67.7 °F 30.14 in Calm     86% 0 in 0.00 W/m2
23:19 71.9 °F 67.5 °F 30.14 in Calm     86% 0 in 0.00 W/m2
23:24 71.8 °F 67.7 °F 30.13 in Calm     87% 0 in 0.00 W/m2
23:29 71.6 °F 67.5 °F 30.13 in Calm     87% 0 in 0.00 W/m2
23:34 71.4 °F 67.7 °F 30.13 in Calm     88% 0 in 0.00 W/m2
23:39 71.2 °F 67.8 °F 30.12 in Calm     89% 0 in 0.00 W/m2
23:44 71 °F 67.6 °F 30.13 in Calm     89% 0 in 0.00 W/m2
23:49 71 °F 67.9 °F 30.13 in Calm     90% 0 in 0.00 W/m2
23:54 70.8 °F 67.4 °F 30.13 in Calm     89% 0 in 0.00 W/m2
23:59 70.5 °F 67.4 °F 30.13 in Calm     90% 0 in 0.00 W/m2
Bourbonnais, Illinois, USA
Compliments of Weather Underground - 4 mb